Airfield :







YOU CAN JOIN US ON...

 
LOGIN :

Register | Disclaimer

   EN    FR    IT 

 









Legend :    VFR   Marginal VFR   IFR   Intensive IFR   Very Intensive IFR
Visi :
Ceiling :
>= 8 km
>= 3000ft
5 to 8 km
1000 to 3000 ft
1500m to 5 km
500 to 1000 ft
800 to 1500m
200 to 500 ft
< 800m
< 200 ft
Symbols :   Thunderstorms  Fog  Heavy snow  Heavy precipitations  Wind > 20 kt







- Airport Elevation : 1188 ft


KCDA - Caledonia County

CURRENT METAR :
  • 242116Z AUTO 32003KT 10SM CLR 24/07 A2988 RMK AO2 T02410068

EXPIRED METARs :
  • 242058Z AUTO 27004KT 10SM CLR 24/07 A2988 RMK AO2 T02400066
  • 242036Z AUTO 27004KT 10SM CLR 24/06 A2988 RMK AO2 T02420059
  • 242018Z AUTO 29004KT 10SM CLR 25/07 A2988 RMK AO2 T02450068
  • 241956Z AUTO 00000KT 10SM CLR 24/06 A2988 RMK AO2 T02420063
  • 241938Z AUTO 29004KT 10SM CLR 24/06 A2988 RMK AO2 T02380055
  • 241916Z AUTO 30006KT 10SM CLR 24/05 A2989 RMK AO2 T02380052
  • 241858Z AUTO 32005KT 10SM CLR 24/06 A2989 RMK AO2 T02370058
  • 241836Z AUTO 00000KT 10SM CLR 24/06 A2989 RMK AO2 T02370056

TAF N/A
KZBW FIR / North America



MET'MAP, your aeronautical weather chart ! - Copyright ORBIFLY December 2007 - Disclaimer

ORBIFLY MET'MAP TEAM :

Programming & Development : Alexandra Zaïnal
Concept & Development : Baudouin d'Aumeries
Co-Development & Prog : Marc-Olivier Méhu
Technical & hardware support : Manuel Goepfert

Contact : metmap@orbifly.com




SOURCES & CREDITS :

   NOAA